Ardmore Capella — V7WK3 — position and weather

sailwx.info

Track history (hours):
 
Tides and Currents Weather Stations Pressure Air Temp Water Temp Dewpoint Dewpoint Depression Visibility Wind Speed Wind Dir Waves Ship Positions

Ardmore Capella

Last reported at 2017-Nov-19 08:56 UTC. Time now 2017-Nov-20 04:14 UTC.
Position N 43°09' W 009°47'.

Length 144 m; draft 6 m.

Type: Ship. MMSI: 538004321.

Date/timePositionNaut miles runAvg speedWind from/ knotsBaromVisibWave heightAir tempDewpointWater temp
2017-Nov-19 08:56N 43°09' W 009°47'810.6
2017-Nov-19 08:12N 43°01' W 009°47'410.6
2017-Nov-19 07:49N 42°57' W 009°48'12712.0
2017-Nov-18 21:13N 40°50' W 009°50'1512.1
2017-Nov-18 19:59N 40°35' W 009°50'611.8
2017-Nov-18 19:30N 40°29' W 009°50'611.4
2017-Nov-18 19:00N 40°24' W 009°50'611.2
2017-Nov-18 18:30N 40°18' W 009°50'711.5
2017-Nov-18 17:54N 40°11' W 009°50'511.8
2017-Nov-18 17:30N 40°06' W 009°50'612.1
2017-Nov-18 17:00N 40°00' W 009°50'3611.5
2017-Nov-18 13:55N 39°25' W 009°51'511.2
2017-Nov-18 13:30N 39°20' W 009°51'611.7
2017-Nov-18 13:00N 39°14' W 009°51'611.9
2017-Nov-18 12:30N 39°08' W 009°51'611.8
2017-Nov-18 12:01N 39°02' W 009°51'611.5
2017-Nov-18 11:31N 38°57' W 009°51'611.9
2017-Nov-18 11:00N 38°51' W 009°51'612.2
2017-Nov-18 10:31N 38°45' W 009°51'611.9
2017-Nov-18 10:01N 38°39' W 009°50'611.6
2017-Nov-18 09:31N 38°33' W 009°48'611.6
2017-Nov-18 09:01N 38°27' W 009°46'611.5
2017-Nov-18 08:30N 38°22' W 009°45'611.6
2017-Nov-18 08:01N 38°16' W 009°43'611.3
2017-Nov-18 07:31N 38°11' W 009°42'611.4
2017-Nov-18 07:01N 38°05' W 009°40'510.9
2017-Nov-18 06:31N 37°60' W 009°39'610.9
2017-Nov-18 06:00N 37°54' W 009°37'510.9
2017-Nov-18 05:31N 37°49' W 009°36'511.0
2017-Nov-18 05:01N 37°44' W 009°34'611.1
2017-Nov-18 04:31N 37°39' W 009°32'611.0
2017-Nov-18 03:59N 37°33' W 009°30'511.1
2017-Nov-18 03:31N 37°28' W 009°29'611.0
2017-Nov-18 03:00N 37°22' W 009°28'511.0
2017-Nov-18 02:31N 37°17' W 009°26'611.1
2017-Nov-18 02:01N 37°12' W 009°24'510.7
2017-Nov-18 01:31N 37°06' W 009°23'611.1
2017-Nov-18 01:01N 37°01' W 009°21'611.2
2017-Nov-18 00:31N 36°55' W 009°20'510.6
2017-Nov-18 00:01N 36°51' W 009°17'611.4
2017-Nov-17 23:30N 36°46' W 009°12'611.2
2017-Nov-17 23:00N 36°44' W 009°06'611.6
2017-Nov-17 22:30N 36°42' W 008°59'611.3
2017-Nov-17 22:00N 36°40' W 008°52'611.6
2017-Nov-17 21:30N 36°38' W 008°46'3511.7
2017-Nov-17 18:34N 36°27' W 008°05'211.8
2017-Nov-17 18:24N 36°27' W 008°03'511.6
2017-Nov-17 17:57N 36°25' W 007°56'1311.6
2017-Nov-17 16:51N 36°21' W 007°41'10511.6
2017-Nov-17 07:47N 35°58' W 005°34'310.5
2017-Nov-17 07:31N 35°59' W 005°31'610.3
2017-Nov-17 06:57N 36°01' W 005°24'510.2
2017-Nov-17 06:30N 36°06' W 005°24'2 4.3
2017-Nov-17 05:59N 36°08' W 005°25'0 0.0
2017-Nov-17 05:29N 36°08' W 005°25'0 0.0
2017-Nov-17 04:59N 36°08' W 005°25'0 0.0
2017-Nov-17 04:29N 36°08' W 005°25'0 0.0
2017-Nov-17 03:59N 36°08' W 005°25'0 0.0
2017-Nov-17 03:29N 36°08' W 005°25'0 0.0
2017-Nov-17 02:59N 36°08' W 005°25'0 0.0
2017-Nov-17 02:29N 36°08' W 005°25'0 0.0
2017-Nov-17 01:56N 36°08' W 005°25'0 0.0
2017-Nov-17 01:29N 36°08' W 005°25'0 0.0
2017-Nov-17 00:59N 36°08' W 005°25'0 0.0
2017-Nov-17 00:29N 36°08' W 005°25'0 0.0
2017-Nov-16 23:59N 36°08' W 005°25'0 0.0
2017-Nov-16 23:29N 36°08' W 005°25'0 0.0
2017-Nov-16 22:59N 36°08' W 005°25'0 0.0
2017-Nov-16 22:29N 36°08' W 005°25'0 0.0
2017-Nov-16 21:59N 36°08' W 005°25'0 0.0
2017-Nov-16 21:29N 36°08' W 005°25'0 0.0
2017-Nov-16 20:59N 36°08' W 005°25'0 0.0
2017-Nov-16 20:29N 36°08' W 005°25'0 0.0
2017-Nov-16 19:59N 36°08' W 005°25'4 3.0
2017-Nov-16 18:47N 36°05' W 005°22'2 8.8
2017-Nov-16 18:31N 36°05' W 005°19'5 2.0
2017-Nov-16 16:11N 36°02' W 005°23'2 7.1
2017-Nov-16 15:50N 35°60' W 005°24'3 7.7
2017-Nov-16 15:30N 35°58' W 005°26'4 7.7
2017-Nov-16 14:59N 35°57' W 005°31'62013.2
2017-Nov-14 16:02N 28°01' W 013°21'213.3
2017-Nov-14 15:56N 28°00' W 013°22'  
Track history (hours):
 
Tides and Currents Weather Stations Pressure Air Temp Water Temp Dewpoint Dewpoint Depression Visibility Wind Speed Wind Dir Waves Ship Positions

Ardmore Capella

Last reported at 2017-Nov-19 08:56 UTC. Time now 2017-Nov-20 04:14 UTC.
Position N 43°09' W 009°47'.

Length 144 m; draft 6 m.

Type: Ship. MMSI: 538004321.

Date/timePositionNaut miles runAvg speedWind from/ knotsBaromVisibWave heightAir tempDewpointWater temp
2017-Nov-19 08:56N 43°09' W 009°47'810.6
2017-Nov-19 08:12N 43°01' W 009°47'410.6
2017-Nov-19 07:49N 42°57' W 009°48'12712.0
2017-Nov-18 21:13N 40°50' W 009°50'1512.1
2017-Nov-18 19:59N 40°35' W 009°50'611.8
2017-Nov-18 19:30N 40°29' W 009°50'611.4
2017-Nov-18 19:00N 40°24' W 009°50'611.2
2017-Nov-18 18:30N 40°18' W 009°50'711.5
2017-Nov-18 17:54N 40°11' W 009°50'511.8
2017-Nov-18 17:30N 40°06' W 009°50'612.1
2017-Nov-18 17:00N 40°00' W 009°50'3611.5
2017-Nov-18 13:55N 39°25' W 009°51'511.2
2017-Nov-18 13:30N 39°20' W 009°51'611.7
2017-Nov-18 13:00N 39°14' W 009°51'611.9
2017-Nov-18 12:30N 39°08' W 009°51'611.8
2017-Nov-18 12:01N 39°02' W 009°51'611.5
2017-Nov-18 11:31N 38°57' W 009°51'611.9
2017-Nov-18 11:00N 38°51' W 009°51'612.2
2017-Nov-18 10:31N 38°45' W 009°51'611.9
2017-Nov-18 10:01N 38°39' W 009°50'611.6
2017-Nov-18 09:31N 38°33' W 009°48'611.6
2017-Nov-18 09:01N 38°27' W 009°46'611.5
2017-Nov-18 08:30N 38°22' W 009°45'611.6
2017-Nov-18 08:01N 38°16' W 009°43'611.3
2017-Nov-18 07:31N 38°11' W 009°42'611.4
2017-Nov-18 07:01N 38°05' W 009°40'510.9
2017-Nov-18 06:31N 37°60' W 009°39'610.9
2017-Nov-18 06:00N 37°54' W 009°37'510.9
2017-Nov-18 05:31N 37°49' W 009°36'511.0
2017-Nov-18 05:01N 37°44' W 009°34'611.1
2017-Nov-18 04:31N 37°39' W 009°32'611.0
2017-Nov-18 03:59N 37°33' W 009°30'511.1
2017-Nov-18 03:31N 37°28' W 009°29'611.0
2017-Nov-18 03:00N 37°22' W 009°28'511.0
2017-Nov-18 02:31N 37°17' W 009°26'611.1
2017-Nov-18 02:01N 37°12' W 009°24'510.7
2017-Nov-18 01:31N 37°06' W 009°23'611.1
2017-Nov-18 01:01N 37°01' W 009°21'611.2
2017-Nov-18 00:31N 36°55' W 009°20'510.6
2017-Nov-18 00:01N 36°51' W 009°17'611.4
2017-Nov-17 23:30N 36°46' W 009°12'611.2
2017-Nov-17 23:00N 36°44' W 009°06'611.6
2017-Nov-17 22:30N 36°42' W 008°59'611.3
2017-Nov-17 22:00N 36°40' W 008°52'611.6
2017-Nov-17 21:30N 36°38' W 008°46'3511.7
2017-Nov-17 18:34N 36°27' W 008°05'211.8
2017-Nov-17 18:24N 36°27' W 008°03'511.6
2017-Nov-17 17:57N 36°25' W 007°56'1311.6
2017-Nov-17 16:51N 36°21' W 007°41'10511.6
2017-Nov-17 07:47N 35°58' W 005°34'310.5
2017-Nov-17 07:31N 35°59' W 005°31'610.3
2017-Nov-17 06:57N 36°01' W 005°24'510.2
2017-Nov-17 06:30N 36°06' W 005°24'2 4.3
2017-Nov-17 05:59N 36°08' W 005°25'0 0.0
2017-Nov-17 05:29N 36°08' W 005°25'0 0.0
2017-Nov-17 04:59N 36°08' W 005°25'0 0.0
2017-Nov-17 04:29N 36°08' W 005°25'0 0.0
2017-Nov-17 03:59N 36°08' W 005°25'0 0.0
2017-Nov-17 03:29N 36°08' W 005°25'0 0.0
2017-Nov-17 02:59N 36°08' W 005°25'0 0.0
2017-Nov-17 02:29N 36°08' W 005°25'0 0.0
2017-Nov-17 01:56N 36°08' W 005°25'0 0.0
2017-Nov-17 01:29N 36°08' W 005°25'0 0.0
2017-Nov-17 00:59N 36°08' W 005°25'0 0.0
2017-Nov-17 00:29N 36°08' W 005°25'0 0.0
2017-Nov-16 23:59N 36°08' W 005°25'0 0.0
2017-Nov-16 23:29N 36°08' W 005°25'0 0.0
2017-Nov-16 22:59N 36°08' W 005°25'0 0.0
2017-Nov-16 22:29N 36°08' W 005°25'0 0.0
2017-Nov-16 21:59N 36°08' W 005°25'0 0.0
2017-Nov-16 21:29N 36°08' W 005°25'0 0.0
2017-Nov-16 20:59N 36°08' W 005°25'0 0.0
2017-Nov-16 20:29N 36°08' W 005°25'0 0.0
2017-Nov-16 19:59N 36°08' W 005°25'4 3.0
2017-Nov-16 18:47N 36°05' W 005°22'2 8.8
2017-Nov-16 18:31N 36°05' W 005°19'5 2.0
2017-Nov-16 16:11N 36°02' W 005°23'2 7.1
2017-Nov-16 15:50N 35°60' W 005°24'3 7.7
2017-Nov-16 15:30N 35°58' W 005°26'4 7.7
2017-Nov-16 14:59N 35°57' W 005°31'62013.2
2017-Nov-14 16:02N 28°01' W 013°21'213.3
2017-Nov-14 15:56N 28°00' W 013°22'  

Dump ship's entire track history